Current Weather Conditions: station 44139

sailwx.info

Wind from 300 at 15 knots gusting 21

Wave height 1.8 meters (5 feet), 7 second period

Air temperature 1.8° C
Water temperature 8.2° C

Last reported at 2016-Dec-06 15:00 UTC.
Time now 2016-Dec-06 16:06 UTC

Location: N 44°12' W 057°06'.
View on Google Maps.

See reports from other nearby stations

  
Tides and Currents Weather Stations Pressure Air Temp Water Temp Dewpoint Dewpoint Depression Visibility Wind Speed Wind Dir Waves Ship Positions
date/time (UTC)wind fromknots sea level pressurealtimeterstation pressurevisibilityair tempwater tempwave heightnotes
2016-Dec-06 15:00 300 15 gusting 21 1.8 8.2 1.8
2016-Dec-06 14:00 330 19 gusting 25 2.3 7.4 1.9
2016-Dec-06 13:00 330 19 gusting 23 2.1 7.1 1.9
2016-Dec-06 12:00 330 19 gusting 25 2.1 7.8 1.8
2016-Dec-06 11:00 320 17 gusting 21 1.9 7.9 1.8
2016-Dec-06 10:00 310 19 gusting 23 1.8 8.0 1.9
2016-Dec-06 09:00 300 17 gusting 25 1.7 7.9 1.9
2016-Dec-06 08:00 310 17 gusting 21 1.6 7.8 2.0
2016-Dec-06 07:00 290 15 gusting 21 1.7 7.7 2.0
2016-Dec-06 06:00 290 17 gusting 21 2.0 7.6 2.0
2016-Dec-06 05:00 310 15 1.9
2016-Dec-06 04:00 310 19 gusting 23 1.9 7.6 2.0
2016-Dec-06 03:00 330 17 gusting 21 1.5 7.5 2.0
2016-Dec-06 02:00 310 15 gusting 21 1.8 7.5 2.1
2016-Dec-06 01:00 320 19 gusting 25 1.5 7.6 2.2
2016-Dec-06 00:00 320 19
2016-Dec-05 23:00 310 19 gusting 23 1.6 8.9 2.3
2016-Dec-05 22:00 320 17 gusting 23 1.2 8.9 2.3
2016-Dec-05 21:00 320 19 gusting 25 1.8 8.9 2.4
2016-Dec-05 20:00 320 23 gusting 27 1.8 8.6 2.6
2016-Dec-05 19:00 330 21 gusting 27 1.5 7.6 2.6
2016-Dec-05 18:00 310 23 gusting 29 2.4 8.0 2.5
2016-Dec-05 17:00 310 25 gusting 27 1.9 8.2 2.5
2016-Dec-05 16:00 300 21 2.2 8.7 2.7
2016-Dec-05 15:00 310 19 gusting 25 2.0 8.2 2.6
2016-Dec-05 14:00 320 15 gusting 21 1.0 8.1 2.8
2016-Dec-05 13:00 330 21 gusting 25 2.6 8.1 2.6
2016-Dec-05 12:00 320 23 gusting 29 2.4 8.0 2.5
2016-Dec-05 11:00 320 19 gusting 25 3.2 8.7 2.5
2016-Dec-05 10:00 320 21 gusting 27 2.8 9.0 2.3
2016-Dec-05 09:00 330 19 gusting 23 2.7 9.0 2.6
2016-Dec-05 08:00 340 19 gusting 21 3.6 9.0 2.7
2016-Dec-05 07:00 320 17 gusting 19 2.9 9.0 2.7
2016-Dec-05 06:00 330 23 gusting 27 3.4 9.0 2.6
2016-Dec-05 05:00 330 21 gusting 25 3.7 9.0 2.6
2016-Dec-05 04:00 340 19 gusting 23 3.2 9.0 2.9
2016-Dec-05 03:00 340 21
2016-Dec-05 02:00 350 25 gusting 31 2.3 8.4 3.0
2016-Dec-05 01:00 340 21 gusting 25 3.9 8.0 3.1
2016-Dec-05 00:00 350 21 gusting 25 3.8 7.6 2.8
2016-Dec-04 23:00 340 21 gusting 25 2.7 7.6 3.1
2016-Dec-04 22:00 010 21 2.8
2016-Dec-04 21:00 340 23 gusting 29 3.5 8.3 3.0
2016-Dec-04 20:00 350 23 gusting 27 3.2 8.6 3.3
2016-Dec-04 18:00 350 23 gusting 27 3.5 8.7 3.2
2016-Dec-04 17:00 340 23 gusting 27 4.1 8.8 3.3
2016-Dec-04 16:00 340 21 gusting 25 3.9 8.4 3.2